Time;durP1;ratioP1;P1;durP2;ratioP2;P2;SDS_P1;SDS_P2;PMS_P1;PMS_P2;Temp;Humidity;BMP_temperature;BMP_pressure;BME280_temperature;BME280_humidity;BME280_pressure;Samples;Min_cycle;Max_cycle;Signal;HPM_P1;HPM_P2
2023/08/17 00:00:32;;;;;;;4.78;2.65;;;20.20;99.90;;;;;;2506691;23;20006;-74
2023/08/17 00:01:33;;;;;;;5.95;2.65;;;20.10;99.90;;;;;;2517392;23;20381;-73
2023/08/17 00:02:33;;;;;;;3.67;2.80;;;20.10;99.90;;;;;;2517834;23;20006;-73
2023/08/17 00:03:34;;;;;;;5.35;2.40;;;20.10;99.90;;;;;;2518826;23;20010;-73
2023/08/17 00:04:34;;;;;;;9.48;3.63;;;20.10;99.90;;;;;;2518600;23;20692;-73
2023/08/17 00:05:35;;;;;;;6.70;3.90;;;20.10;99.90;;;;;;2507707;23;20006;-74
2023/08/17 00:06:35;;;;;;;6.53;3.45;;;20.10;99.90;;;;;;2506932;23;20003;-74
2023/08/17 00:07:36;;;;;;;5.47;2.85;;;20.10;99.90;;;;;;2517497;23;20081;-74
2023/08/17 00:08:36;;;;;;;10.20;3.45;;;20.10;99.90;;;;;;2516982;23;20002;-75
2023/08/17 00:09:37;;;;;;;5.25;3.05;;;20.10;99.90;;;;;;2507065;23;20038;-74
2023/08/17 00:10:38;;;;;;;6.65;3.47;;;20.10;99.90;;;;;;2517977;23;20013;-74
2023/08/17 00:11:39;;;;;;;3.65;3.13;;;20.10;99.90;;;;;;2517724;23;20580;-74
2023/08/17 00:12:39;;;;;;;5.20;2.83;;;20.10;99.90;;;;;;2517652;23;20331;-74
2023/08/17 00:13:40;;;;;;;2.92;2.60;;;20.10;99.90;;;;;;2518410;23;20415;-74
2023/08/17 00:14:40;;;;;;;4.63;2.78;;;20.10;99.90;;;;;;2518782;23;20021;-74
2023/08/17 00:15:41;;;;;;;5.15;2.92;;;20.10;99.90;;;;;;2517874;23;20011;-74
2023/08/17 00:16:41;;;;;;;7.68;3.17;;;20.10;99.90;;;;;;2505984;23;20010;-74
2023/08/17 00:17:42;;;;;;;3.60;2.97;;;20.10;99.90;;;;;;2506173;23;20119;-74
2023/08/17 00:18:43;;;;;;;4.72;2.75;;;20.10;99.90;;;;;;2506980;23;20010;-74
2023/08/17 00:19:43;;;;;;;4.05;2.60;;;20.10;99.90;;;;;;2518167;23;20021;-74
2023/08/17 00:20:44;;;;;;;3.97;2.60;;;20.10;99.90;;;;;;2518799;23;20017;-73
2023/08/17 00:21:45;;;;;;;2.67;2.10;;;20.10;99.90;;;;;;2506982;23;20078;-74
2023/08/17 00:22:45;;;;;;;4.57;2.63;;;20.10;99.90;;;;;;2517486;23;20037;-74
2023/08/17 00:23:46;;;;;;;4.50;2.40;;;20.00;99.90;;;;;;2518290;23;20007;-74
2023/08/17 00:24:46;;;;;;;4.65;3.13;;;20.10;99.90;;;;;;2504552;23;20038;-74
2023/08/17 00:25:48;;;;;;;3.90;2.97;;;20.00;99.90;;;;;;2506299;23;20016;-73
2023/08/17 00:26:48;;;;;;;3.88;2.60;;;20.10;99.90;;;;;;2506671;23;20030;-73
2023/08/17 00:27:49;;;;;;;4.82;3.08;;;20.00;99.90;;;;;;2506708;23;20010;-73
2023/08/17 00:28:49;;;;;;;7.13;3.08;;;20.00;99.90;;;;;;2507569;23;20007;-74
2023/08/17 00:29:50;;;;;;;4.32;2.70;;;20.00;99.90;;;;;;2507315;23;20509;-73
2023/08/17 00:30:51;;;;;;;5.00;2.92;;;20.00;99.90;;;;;;2506505;23;20399;-73
2023/08/17 00:31:52;;;;;;;4.47;2.80;;;20.00;99.90;;;;;;2506758;23;20013;-74
2023/08/17 00:32:52;;;;;;;4.13;2.90;;;20.00;99.90;;;;;;2506588;23;20007;-74
2023/08/17 00:33:53;;;;;;;5.25;2.58;;;20.00;99.90;;;;;;2507446;23;20007;-74
2023/08/17 00:34:53;;;;;;;3.47;2.50;;;20.00;99.90;;;;;;2518479;23;20097;-74
2023/08/17 00:35:54;;;;;;;3.35;2.38;;;20.00;99.90;;;;;;2518647;23;20525;-73
2023/08/17 00:36:54;;;;;;;2.95;2.65;;;20.00;99.90;;;;;;2505813;23;20007;-74
2023/08/17 00:37:55;;;;;;;3.63;2.75;;;20.00;99.90;;;;;;2506467;23;20073;-74
2023/08/17 00:38:56;;;;;;;3.88;2.63;;;19.90;99.90;;;;;;2507381;23;20017;-74
2023/08/17 00:39:56;;;;;;;3.72;2.53;;;19.90;99.90;;;;;;2507060;23;20006;-73
2023/08/17 00:40:57;;;;;;;4.45;3.13;;;19.90;99.90;;;;;;2506979;23;20003;-74
2023/08/17 00:41:57;;;;;;;3.47;2.60;;;19.90;99.90;;;;;;2507711;23;20083;-74
2023/08/17 00:42:58;;;;;;;3.03;2.20;;;19.80;99.90;;;;;;2506740;23;20443;-74
2023/08/17 00:43:59;;;;;;;2.97;2.70;;;19.80;99.90;;;;;;2507743;23;20007;-73
2023/08/17 00:45:00;;;;;;;4.35;2.70;;;19.80;99.90;;;;;;2517894;23;20006;-73
2023/08/17 00:46:01;;;;;;;5.00;3.20;;;19.80;99.90;;;;;;2519025;23;20069;-73
2023/08/17 00:47:02;;;;;;;3.90;2.78;;;19.80;99.90;;;;;;2506362;23;20003;-73
2023/08/17 00:48:07;;;;;;;4.28;2.38;;;19.80;99.90;;;;;;2517786;23;20034;-73
2023/08/17 00:49:08;;;;;;;6.78;3.28;;;19.80;99.90;;;;;;2516637;23;20034;-73
2023/08/17 00:50:09;;;;;;;4.88;2.92;;;19.80;99.90;;;;;;2506694;23;20039;-73
2023/08/17 00:51:10;;;;;;;5.22;2.70;;;19.80;99.90;;;;;;2505220;23;20436;-73
2023/08/17 00:52:11;;;;;;;3.55;2.55;;;19.80;99.90;;;;;;2507829;23;20447;-73
2023/08/17 00:53:13;;;;;;;3.97;2.67;;;19.80;99.90;;;;;;2506435;23;20002;-73
2023/08/17 00:54:16;;;;;;;4.18;2.45;;;19.80;99.90;;;;;;2507551;23;20029;-73
2023/08/17 00:55:16;;;;;;;5.57;2.75;;;19.80;99.90;;;;;;2506089;23;20040;-74
2023/08/17 00:56:17;;;;;;;4.97;2.45;;;19.80;99.90;;;;;;2507342;23;20424;-74
2023/08/17 00:57:19;;;;;;;4.78;2.55;;;19.80;99.90;;;;;;2506683;23;20011;-74
2023/08/17 00:58:21;;;;;;;5.18;3.03;;;19.80;99.90;;;;;;2506372;23;20013;-73
2023/08/17 00:59:23;;;;;;;4.53;2.60;;;19.80;99.90;;;;;;2505810;23;20006;-73
2023/08/17 01:00:25;;;;;;;4.30;2.97;;;19.80;99.90;;;;;;2507649;23;20058;-73
2023/08/17 01:01:26;;;;;;;3.28;2.60;;;19.80;99.90;;;;;;2505472;23;20017;-74
2023/08/17 01:02:26;;;;;;;4.85;2.90;;;19.80;99.90;;;;;;2507322;23;20013;-74
2023/08/17 01:03:30;;;;;;;3.70;2.95;;;19.80;99.90;;;;;;2507677;23;20089;-74
2023/08/17 01:04:31;;;;;;;4.78;2.55;;;19.80;99.90;;;;;;2506760;23;20010;-74
2023/08/17 01:05:32;;;;;;;3.92;2.90;;;19.80;99.90;;;;;;2507652;23;20010;-74
2023/08/17 01:06:33;;;;;;;5.47;2.92;;;19.80;99.90;;;;;;2507348;23;20013;-74
2023/08/17 01:07:34;;;;;;;4.72;2.58;;;19.80;99.90;;;;;;2506338;23;20011;-74
2023/08/17 01:08:35;;;;;;;4.18;2.78;;;19.80;99.90;;;;;;2508141;23;20081;-74
2023/08/17 01:09:37;;;;;;;4.30;2.75;;;19.80;99.90;;;;;;2507960;23;20050;-74
2023/08/17 01:11:00;;;;;;;4.57;2.90;;;19.80;99.90;;;;;;2507363;23;20332;-74
2023/08/17 01:12:36;;;;;;;5.18;2.40;;;19.80;99.90;;;;;;2507583;23;20003;-74
2023/08/17 01:14:09;;;;;;;3.83;2.90;;;19.70;99.90;;;;;;2518982;23;20053;-74
2023/08/17 01:15:20;;;;;;;6.63;2.42;;;19.70;99.90;;;;;;2511922;23;20428;-74
2023/08/17 01:16:27;;;;;;;3.00;2.45;;;19.70;99.90;;;;;;2506992;23;20685;-73
2023/08/17 01:17:47;;;;;;;5.38;2.90;;;19.70;99.90;;;;;;2517472;23;20017;-74
2023/08/17 01:18:50;;;;;;;4.45;2.95;;;19.70;99.90;;;;;;2513791;23;20674;-74
2023/08/17 01:19:52;;;;;;;3.15;2.80;;;19.70;99.90;;;;;;2517415;23;20414;-74
2023/08/17 01:20:55;;;;;;;4.00;2.88;;;19.70;99.90;;;;;;2518160;23;20017;-73
2023/08/17 01:22:04;;;;;;;5.57;3.00;;;19.70;99.90;;;;;;2506269;23;20010;-74
2023/08/17 01:23:06;;;;;;;4.28;2.80;;;19.60;99.90;;;;;;2507242;23;20029;-73
2023/08/17 01:24:07;;;;;;;3.88;2.50;;;19.60;99.90;;;;;;2507009;23;20676;-73
2023/08/17 01:25:08;;;;;;;5.35;3.22;;;19.60;99.90;;;;;;2507131;23;20010;-74
2023/08/17 01:26:09;;;;;;;4.97;2.90;;;19.60;99.90;;;;;;2516541;23;20443;-73
2023/08/17 01:27:09;;;;;;;2.88;2.67;;;19.60;99.90;;;;;;2517146;23;21021;-73
2023/08/17 01:28:10;;;;;;;4.40;2.72;;;19.60;99.90;;;;;;2507631;23;20003;-74
2023/08/17 01:29:11;;;;;;;4.80;3.03;;;19.60;99.90;;;;;;2507366;23;19999;-74
2023/08/17 01:30:15;;;;;;;5.05;2.78;;;19.60;99.90;;;;;;2507215;23;20030;-74
2023/08/17 01:31:24;;;;;;;5.15;3.03;;;19.60;99.90;;;;;;2506639;23;20006;-74
2023/08/17 01:32:36;;;;;;;5.95;3.03;;;19.60;99.90;;;;;;2505722;23;20013;-74
2023/08/17 01:33:46;;;;;;;4.63;2.85;;;19.50;99.90;;;;;;2507358;23;20007;-74
2023/08/17 01:35:21;;;;;;;4.68;2.63;;;19.50;99.90;;;;;;2507038;23;20107;-74
2023/08/17 01:36:50;;;;;;;5.22;2.72;;;19.50;99.90;;;;;;2507304;23;20058;-74
2023/08/17 01:37:54;;;;;;;7.95;3.45;;;19.40;99.90;;;;;;2497368;23;20305;-74
2023/08/17 01:38:57;;;;;;;4.32;2.83;;;19.40;99.90;;;;;;2507015;23;20030;-74
2023/08/17 01:39:58;;;;;;;3.50;2.33;;;19.40;99.90;;;;;;2507373;23;19998;-74
2023/08/17 01:41:01;;;;;;;3.13;1.98;;;19.40;99.90;;;;;;2507616;23;19998;-74
2023/08/17 01:42:03;;;;;;;4.70;2.90;;;19.50;99.90;;;;;;2518449;23;20002;-74
2023/08/17 01:43:04;;;;;;;3.88;3.00;;;19.50;99.90;;;;;;2518552;23;20039;-74
2023/08/17 01:44:05;;;;;;;4.97;2.90;;;19.50;99.90;;;;;;2508121;23;20007;-74
2023/08/17 01:45:06;;;;;;;3.83;2.65;;;19.50;99.90;;;;;;2507214;23;20003;-74
2023/08/17 01:46:07;;;;;;;4.07;3.03;;;19.50;99.90;;;;;;2506890;23;20007;-74
2023/08/17 01:47:09;;;;;;;5.78;2.97;;;19.50;99.90;;;;;;2506658;23;20191;-74
2023/08/17 01:48:10;;;;;;;5.00;3.08;;;19.50;99.90;;;;;;2506587;23;20492;-73
2023/08/17 01:49:10;;;;;;;4.38;3.13;;;19.50;99.90;;;;;;2507666;23;20446;-74
2023/08/17 01:50:11;;;;;;;7.10;3.05;;;19.50;99.90;;;;;;2516155;23;20049;-73
2023/08/17 01:51:16;;;;;;;4.88;3.03;;;19.50;99.90;;;;;;2519098;23;20362;-73
2023/08/17 01:52:17;;;;;;;5.30;2.75;;;19.50;99.90;;;;;;2507303;23;20340;-73
2023/08/17 01:53:17;;;;;;;5.70;3.55;;;19.50;99.90;;;;;;2517812;23;20052;-74
2023/08/17 01:54:18;;;;;;;5.55;3.10;;;19.50;99.90;;;;;;2518281;23;20006;-74
2023/08/17 01:55:22;;;;;;;4.07;3.40;;;19.50;99.90;;;;;;2506584;23;20736;-73
2023/08/17 01:56:22;;;;;;;5.38;3.15;;;19.50;99.90;;;;;;2506141;23;20007;-74
2023/08/17 01:57:23;;;;;;;8.50;3.25;;;19.50;99.90;;;;;;2506311;23;20009;-73
2023/08/17 01:58:23;;;;;;;4.72;2.88;;;19.50;99.90;;;;;;2507659;23;20041;-73
2023/08/17 01:59:24;;;;;;;4.15;3.33;;;19.50;99.90;;;;;;2507812;23;20010;-74
2023/08/17 02:00:24;;;;;;;5.95;3.22;;;19.50;99.90;;;;;;2505461;23;20066;-73
2023/08/17 02:01:25;;;;;;;5.03;2.95;;;19.50;99.90;;;;;;2506409;23;20018;-73
2023/08/17 02:02:26;;;;;;;4.22;3.17;;;19.50;99.90;;;;;;2518753;23;20010;-73
2023/08/17 02:03:28;;;;;;;2.90;2.70;;;19.50;99.90;;;;;;2517545;23;20018;-73
2023/08/17 02:04:29;;;;;;;4.80;2.75;;;19.40;99.90;;;;;;2518450;23;20594;-74
2023/08/17 02:05:29;;;;;;;4.50;3.05;;;19.50;99.90;;;;;;2517886;23;20580;-73
2023/08/17 02:06:30;;;;;;;6.60;2.97;;;19.50;99.90;;;;;;2507444;23;20003;-73
2023/08/17 02:07:31;;;;;;;5.88;3.10;;;19.50;99.90;;;;;;2506859;23;20454;-74
2023/08/17 02:08:34;;;;;;;3.65;2.72;;;19.50;99.90;;;;;;2506278;23;20017;-74
2023/08/17 02:09:35;;;;;;;5.35;3.30;;;19.50;99.90;;;;;;2517895;23;20692;-73
2023/08/17 02:10:36;;;;;;;3.72;2.95;;;19.50;99.90;;;;;;2517780;23;20692;-73
2023/08/17 02:11:36;;;;;;;6.57;3.63;;;19.40;99.90;;;;;;2516507;23;20015;-73
2023/08/17 02:12:37;;;;;;;3.50;2.30;;;19.50;99.90;;;;;;2518051;23;20038;-73
2023/08/17 02:13:37;;;;;;;5.18;3.00;;;19.40;99.90;;;;;;2505679;23;20086;-73
2023/08/17 02:14:38;;;;;;;5.13;2.85;;;19.50;99.90;;;;;;2507033;23;20011;-73
2023/08/17 02:15:39;;;;;;;4.03;3.42;;;19.50;99.90;;;;;;2506665;23;20375;-73
2023/08/17 02:16:40;;;;;;;3.88;3.00;;;19.50;99.90;;;;;;2507159;23;20388;-73
2023/08/17 02:17:40;;;;;;;4.10;3.13;;;19.50;99.90;;;;;;2506292;23;20113;-73
2023/08/17 02:18:41;;;;;;;7.18;3.80;;;19.50;99.90;;;;;;2506906;23;20062;-73
2023/08/17 02:19:42;;;;;;;4.32;3.05;;;19.50;99.90;;;;;;2506852;23;20138;-73
2023/08/17 02:20:42;;;;;;;4.20;2.95;;;19.50;99.90;;;;;;2507441;23;20022;-73
2023/08/17 02:21:43;;;;;;;3.95;2.72;;;19.50;99.90;;;;;;2507491;23;20082;-73
2023/08/17 02:22:44;;;;;;;5.03;3.55;;;19.50;99.90;;;;;;2507004;23;20412;-73
2023/08/17 02:23:44;;;;;;;6.63;2.88;;;19.50;99.90;;;;;;2507292;23;20031;-73
2023/08/17 02:24:46;;;;;;;4.80;3.00;;;19.50;99.90;;;;;;2517686;23;20113;-74
2023/08/17 02:25:47;;;;;;;3.63;2.78;;;19.50;99.90;;;;;;2518888;23;20012;-73
2023/08/17 02:26:47;;;;;;;6.00;3.10;;;19.50;99.90;;;;;;2507904;23;20006;-73
2023/08/17 02:27:48;;;;;;;6.13;2.95;;;19.50;99.90;;;;;;2506105;23;20090;-74
2023/08/17 02:28:48;;;;;;;7.20;4.30;;;19.50;99.90;;;;;;2507553;23;20440;-73
2023/08/17 02:29:49;;;;;;;5.72;3.20;;;19.40;99.90;;;;;;2506519;23;20051;-74
2023/08/17 02:30:55;;;;;;;5.43;3.28;;;19.40;99.90;;;;;;2506904;23;20017;-73
2023/08/17 02:31:55;;;;;;;3.55;2.83;;;19.40;99.90;;;;;;2507050;23;20391;-73
2023/08/17 02:32:56;;;;;;;8.55;3.40;;;19.40;99.90;;;;;;2518225;23;20006;-73
2023/08/17 02:34:04;;;;;;;5.40;3.30;;;19.40;99.90;;;;;;2518752;23;20006;-73
2023/08/17 02:35:06;;;;;;;8.85;3.42;;;19.40;99.90;;;;;;2506756;23;20014;-73
2023/08/17 02:36:07;;;;;;;4.88;3.45;;;19.40;99.90;;;;;;2507149;23;20003;-73
2023/08/17 02:37:07;;;;;;;5.97;3.17;;;19.40;99.90;;;;;;2506483;23;20013;-73
2023/08/17 02:38:08;;;;;;;5.05;2.92;;;19.40;99.90;;;;;;2506891;23;20011;-73
2023/08/17 02:39:08;;;;;;;4.93;2.70;;;19.30;99.90;;;;;;2506689;23;20054;-73
2023/08/17 02:40:10;;;;;;;3.95;3.17;;;19.40;99.90;;;;;;2517947;23;20007;-73
2023/08/17 02:41:10;;;;;;;3.80;2.55;;;19.30;99.90;;;;;;2518374;23;20348;-73
2023/08/17 02:42:11;;;;;;;4.40;2.63;;;19.40;99.90;;;;;;2517304;23;20037;-73
2023/08/17 02:43:11;;;;;;;4.43;2.53;;;19.40;99.90;;;;;;2517801;23;20006;-73
2023/08/17 02:44:12;;;;;;;4.60;3.08;;;19.30;99.90;;;;;;2507074;23;20466;-73
2023/08/17 02:45:12;;;;;;;5.55;2.97;;;19.40;99.90;;;;;;2517954;23;20036;-73
2023/08/17 02:46:13;;;;;;;3.08;2.88;;;19.40;99.90;;;;;;2517567;23;20130;-73
2023/08/17 02:47:13;;;;;;;4.15;2.55;;;19.40;99.90;;;;;;2505050;23;20010;-73
2023/08/17 02:48:14;;;;;;;4.07;2.45;;;19.30;99.90;;;;;;2507462;23;20104;-73
2023/08/17 02:49:15;;;;;;;4.25;3.05;;;19.40;99.90;;;;;;2507205;23;20006;-73
2023/08/17 02:50:15;;;;;;;6.88;3.00;;;19.30;99.90;;;;;;2507288;23;20184;-73
2023/08/17 02:51:16;;;;;;;3.67;2.90;;;19.30;99.90;;;;;;2517381;23;20507;-73
2023/08/17 02:52:16;;;;;;;4.20;3.03;;;19.30;99.90;;;;;;2517910;23;20033;-73
2023/08/17 02:53:17;;;;;;;6.10;3.30;;;19.30;99.90;;;;;;2506943;23;20007;-73
2023/08/17 02:54:17;;;;;;;8.88;3.10;;;19.40;99.90;;;;;;2506908;23;20011;-73
2023/08/17 02:55:18;;;;;;;3.13;2.30;;;19.40;99.90;;;;;;2506553;23;20047;-73
2023/08/17 02:56:18;;;;;;;3.10;2.33;;;19.40;99.90;;;;;;2507238;23;20066;-73
2023/08/17 02:57:19;;;;;;;7.93;3.05;;;19.40;99.90;;;;;;2506417;23;20007;-73
2023/08/17 02:58:20;;;;;;;5.45;3.70;;;19.40;99.90;;;;;;2507213;23;20089;-73
2023/08/17 02:59:20;;;;;;;4.03;3.67;;;19.40;99.90;;;;;;2518008;23;20086;-73
2023/08/17 03:00:21;;;;;;;8.02;2.85;;;19.40;99.90;;;;;;2517310;23;20093;-73
2023/08/17 03:01:22;;;;;;;4.28;3.10;;;19.40;99.90;;;;;;2507139;23;20013;-73
2023/08/17 03:02:22;;;;;;;3.35;2.80;;;19.40;99.90;;;;;;2507194;23;20090;-73
2023/08/17 03:03:23;;;;;;;6.22;3.03;;;19.40;99.90;;;;;;2506559;23;20006;-73
2023/08/17 03:04:24;;;;;;;6.22;3.45;;;19.40;99.90;;;;;;2506511;23;19995;-73
2023/08/17 03:05:24;;;;;;;4.45;3.10;;;19.40;99.90;;;;;;2507046;23;20451;-73
2023/08/17 03:06:25;;;;;;;4.07;3.55;;;19.40;99.90;;;;;;2506190;23;20478;-73
2023/08/17 03:07:25;;;;;;;6.47;3.65;;;19.40;99.90;;;;;;2506040;23;20075;-73
2023/08/17 03:08:26;;;;;;;3.25;2.97;;;19.40;99.90;;;;;;2506692;23;20026;-73
2023/08/17 03:09:26;;;;;;;4.55;3.08;;;19.40;99.90;;;;;;2506723;23;20005;-73
2023/08/17 03:10:27;;;;;;;3.53;2.95;;;19.40;99.90;;;;;;2506948;23;20010;-73
2023/08/17 03:11:28;;;;;;;7.05;3.22;;;19.40;99.90;;;;;;2517378;23;20061;-73
2023/08/17 03:12:28;;;;;;;4.90;3.67;;;19.50;99.90;;;;;;2517470;23;20605;-73
2023/08/17 03:13:29;;;;;;;4.35;3.78;;;19.50;99.90;;;;;;2507202;23;20082;-73
2023/08/17 03:14:29;;;;;;;5.07;3.50;;;19.40;99.90;;;;;;2518340;23;20010;-74
2023/08/17 03:15:30;;;;;;;4.70;2.80;;;19.50;99.90;;;;;;2517895;23;20002;-74
2023/08/17 03:16:30;;;;;;;7.28;3.35;;;19.40;99.90;;;;;;2507014;23;20339;-73
2023/08/17 03:17:31;;;;;;;6.15;3.80;;;19.50;99.90;;;;;;2506411;23;20007;-73
2023/08/17 03:18:31;;;;;;;4.18;3.03;;;19.40;99.90;;;;;;2506840;23;20034;-73
2023/08/17 03:19:32;;;;;;;4.82;3.15;;;19.40;99.90;;;;;;2507088;23;20881;-74
2023/08/17 03:20:32;;;;;;;3.97;3.60;;;19.50;99.90;;;;;;2517705;23;20339;-73
2023/08/17 03:21:33;;;;;;;3.47;2.92;;;19.50;99.90;;;;;;2517923;23;20095;-74
2023/08/17 03:22:34;;;;;;;7.55;3.92;;;19.50;99.90;;;;;;2506546;23;20534;-74
2023/08/17 03:23:35;;;;;;;6.93;3.70;;;19.40;99.90;;;;;;2506607;23;20347;-73
2023/08/17 03:24:36;;;;;;;6.60;4.20;;;19.50;99.90;;;;;;2506049;23;20034;-73
2023/08/17 03:25:37;;;;;;;4.97;3.20;;;19.40;99.90;;;;;;2507370;23;20618;-73
2023/08/17 03:26:38;;;;;;;5.03;3.33;;;19.40;99.90;;;;;;2507444;23;20419;-73
2023/08/17 03:27:38;;;;;;;4.53;3.78;;;19.40;99.90;;;;;;2517156;23;20018;-74
2023/08/17 03:28:39;;;;;;;6.20;3.90;;;19.40;99.90;;;;;;2518698;23;20002;-73
2023/08/17 03:29:39;;;;;;;5.65;3.83;;;19.40;99.90;;;;;;2518931;23;20014;-73
2023/08/17 03:30:40;;;;;;;6.97;3.53;;;19.40;99.90;;;;;;2517484;23;20062;-73
2023/08/17 03:31:40;;;;;;;3.85;3.53;;;19.40;99.90;;;;;;2507891;23;20011;-73
2023/08/17 03:32:41;;;;;;;6.53;3.25;;;19.40;99.90;;;;;;2505952;23;20007;-73
2023/08/17 03:33:41;;;;;;;4.32;3.80;;;19.40;99.90;;;;;;2506158;23;20452;-74
2023/08/17 03:34:42;;;;;;;4.95;3.60;;;19.40;99.90;;;;;;2507708;23;20588;-73
2023/08/17 03:35:42;;;;;;;4.82;3.70;;;19.30;99.90;;;;;;2506860;23;20069;-74
2023/08/17 03:36:43;;;;;;;5.47;3.40;;;19.30;99.90;;;;;;2507797;23;20015;-73
2023/08/17 03:37:44;;;;;;;4.30;3.83;;;19.30;99.90;;;;;;2506737;23;20018;-73
2023/08/17 03:38:44;;;;;;;5.75;4.15;;;19.40;99.90;;;;;;2507186;23;20463;-73
2023/08/17 03:39:45;;;;;;;7.55;4.45;;;19.30;99.90;;;;;;2507871;23;20010;-73
2023/08/17 03:40:47;;;;;;;8.25;4.45;;;19.30;99.90;;;;;;2507387;23;20571;-73
2023/08/17 03:41:47;;;;;;;8.95;4.25;;;19.30;99.90;;;;;;2518721;23;20010;-73
2023/08/17 03:42:48;;;;;;;4.00;3.45;;;19.30;99.90;;;;;;2518141;23;20033;-74
2023/08/17 03:43:49;;;;;;;7.00;3.92;;;19.30;99.90;;;;;;2506763;23;20081;-73
2023/08/17 03:44:50;;;;;;;7.28;3.90;;;19.30;99.90;;;;;;2507896;23;20064;-73
2023/08/17 03:45:51;;;;;;;6.13;3.83;;;19.30;99.90;;;;;;2506300;23;20013;-74
2023/08/17 03:46:51;;;;;;;5.15;3.70;;;19.20;99.90;;;;;;2507458;23;20010;-74
2023/08/17 03:47:52;;;;;;;6.35;4.05;;;19.20;99.90;;;;;;2518374;23;20098;-74
2023/08/17 03:48:52;;;;;;;4.40;3.05;;;19.20;99.90;;;;;;2518823;23;20057;-74
2023/08/17 03:49:53;;;;;;;8.20;4.30;;;19.20;99.90;;;;;;2507536;23;20054;-73
2023/08/17 03:50:56;;;;;;;5.60;3.55;;;19.20;99.90;;;;;;2507124;23;20006;-74
2023/08/17 03:51:57;;;;;;;6.20;3.70;;;19.30;99.90;;;;;;2517511;23;20006;-73
2023/08/17 03:52:57;;;;;;;7.10;3.30;;;19.30;99.90;;;;;;2516923;23;20097;-73
2023/08/17 03:53:58;;;;;;;7.40;4.13;;;19.20;99.90;;;;;;2505503;23;20172;-73
2023/08/17 03:54:58;;;;;;;4.88;3.95;;;19.20;99.90;;;;;;2506314;23;20038;-73
2023/08/17 03:55:59;;;;;;;7.78;3.45;;;19.20;99.90;;;;;;2506950;23;20328;-73
2023/08/17 03:57:03;;;;;;;6.50;3.75;;;19.20;99.90;;;;;;2506378;23;20062;-73
2023/08/17 03:58:03;;;;;;;3.85;3.47;;;19.20;99.90;;;;;;2507174;23;20432;-73
2023/08/17 03:59:04;;;;;;;10.70;4.05;;;19.30;99.90;;;;;;2507762;23;20469;-73
2023/08/17 04:00:06;;;;;;;8.70;4.22;;;19.20;99.90;;;;;;2507133;23;20039;-73
2023/08/17 04:01:06;;;;;;;5.88;4.18;;;19.20;99.90;;;;;;2506848;23;20034;-73
2023/08/17 04:02:07;;;;;;;7.15;4.18;;;19.20;99.90;;;;;;2518405;23;20065;-73
2023/08/17 04:03:07;;;;;;;7.78;3.70;;;19.20;99.90;;;;;;2517974;23;20010;-73
2023/08/17 04:04:08;;;;;;;4.82;3.58;;;19.20;99.90;;;;;;2518887;23;20037;-73
2023/08/17 04:05:09;;;;;;;7.35;3.90;;;19.20;99.90;;;;;;2518414;23;20048;-73
2023/08/17 04:06:12;;;;;;;4.75;4.00;;;19.20;99.90;;;;;;2506442;23;20458;-73
2023/08/17 04:07:21;;;;;;;6.22;3.63;;;19.20;99.90;;;;;;2517847;23;20002;-73
2023/08/17 04:08:21;;;;;;;6.65;3.97;;;19.20;99.90;;;;;;2517426;23;20479;-73
2023/08/17 04:09:22;;;;;;;4.10;3.70;;;19.10;99.90;;;;;;2506907;23;20320;-73
2023/08/17 04:10:22;;;;;;;6.43;3.85;;;19.10;99.90;;;;;;2507670;23;20013;-73
2023/08/17 04:11:23;;;;;;;5.90;4.22;;;19.10;99.90;;;;;;2507145;23;20131;-73
2023/08/17 04:12:23;;;;;;;6.00;4.20;;;19.00;99.90;;;;;;2507784;23;20392;-73
2023/08/17 04:13:24;;;;;;;10.73;4.38;;;19.00;99.90;;;;;;2507176;23;20006;-73
2023/08/17 04:14:25;;;;;;;8.60;3.97;;;19.00;99.90;;;;;;2518244;23;20006;-73
2023/08/17 04:15:25;;;;;;;5.05;3.45;;;19.00;99.90;;;;;;2518339;23;20187;-73
2023/08/17 04:16:26;;;;;;;3.88;3.42;;;19.00;99.90;;;;;;2506605;23;20006;-73
2023/08/17 04:17:27;;;;;;;6.20;3.72;;;19.00;99.90;;;;;;2506872;23;20007;-73
2023/08/17 04:18:27;;;;;;;6.65;3.58;;;19.00;99.90;;;;;;2506877;23;20006;-73
2023/08/17 04:19:28;;;;;;;6.30;4.07;;;19.00;99.90;;;;;;2507430;23;20372;-73
2023/08/17 04:20:28;;;;;;;4.35;3.80;;;19.00;99.90;;;;;;2518344;23;20010;-73
2023/08/17 04:21:29;;;;;;;6.88;4.03;;;19.00;99.90;;;;;;2518132;23;20014;-73
2023/08/17 04:22:29;;;;;;;5.10;4.03;;;19.00;99.90;;;;;;2507162;23;20003;-73
2023/08/17 04:23:30;;;;;;;6.68;3.88;;;19.00;99.90;;;;;;2507791;23;20436;-73
2023/08/17 04:24:30;;;;;;;6.45;3.90;;;19.00;99.90;;;;;;2507454;23;20007;-73
2023/08/17 04:25:31;;;;;;;9.20;4.50;;;19.00;99.90;;;;;;2507193;23;20038;-73
2023/08/17 04:26:31;;;;;;;4.47;4.07;;;19.00;99.90;;;;;;2518120;23;20003;-73
2023/08/17 04:27:32;;;;;;;5.65;4.07;;;19.00;99.90;;;;;;2517344;23;20003;-73
2023/08/17 04:28:32;;;;;;;6.80;4.15;;;19.00;99.90;;;;;;2506418;23;20047;-73
2023/08/17 04:29:33;;;;;;;5.75;3.95;;;19.00;99.90;;;;;;2506024;23;20003;-73
2023/08/17 04:30:34;;;;;;;7.35;4.00;;;19.00;99.90;;;;;;2506985;23;20393;-73
2023/08/17 04:31:34;;;;;;;5.65;4.40;;;19.00;99.90;;;;;;2507240;23;20062;-73
2023/08/17 04:32:35;;;;;;;9.18;4.63;;;18.90;99.90;;;;;;2507477;23;20503;-73
2023/08/17 04:33:35;;;;;;;9.55;4.30;;;19.00;99.90;;;;;;2507409;23;20007;-73
2023/08/17 04:34:36;;;;;;;4.82;4.10;;;19.00;99.90;;;;;;2507072;23;20417;-73
2023/08/17 04:35:36;;;;;;;10.30;5.00;;;19.00;99.90;;;;;;2505907;23;20078;-73
2023/08/17 04:36:37;;;;;;;6.93;4.18;;;19.00;99.90;;;;;;2507451;23;20003;-73
2023/08/17 04:37:37;;;;;;;4.95;4.45;;;19.00;99.90;;;;;;2506491;23;20737;-73
2023/08/17 04:38:38;;;;;;;6.05;4.05;;;19.00;99.90;;;;;;2507266;23;20007;-74
2023/08/17 04:39:38;;;;;;;8.02;4.25;;;19.00;99.90;;;;;;2507380;23;20014;-73
2023/08/17 04:40:39;;;;;;;7.47;4.45;;;19.00;99.90;;;;;;2506935;23;20007;-74
2023/08/17 04:41:40;;;;;;;5.28;4.53;;;19.00;99.90;;;;;;2517749;23;20093;-73
2023/08/17 04:42:40;;;;;;;5.05;4.10;;;19.00;99.90;;;;;;2518561;23;20347;-74
2023/08/17 04:43:42;;;;;;;10.57;4.88;;;19.00;99.90;;;;;;2507033;23;20066;-74
2023/08/17 04:44:43;;;;;;;4.97;4.25;;;19.00;99.90;;;;;;2507970;23;20007;-74
2023/08/17 04:45:47;;;;;;;5.53;4.18;;;19.00;99.90;;;;;;2506758;23;20061;-74
2023/08/17 04:46:48;;;;;;;6.53;4.60;;;19.00;99.90;;;;;;2507086;23;20086;-74
2023/08/17 04:47:49;;;;;;;7.25;4.40;;;19.00;99.90;;;;;;2506599;23;20074;-74
2023/08/17 04:48:49;;;;;;;6.93;4.25;;;19.00;99.90;;;;;;2506821;23;20007;-74
2023/08/17 04:49:50;;;;;;;7.97;3.60;;;19.00;99.90;;;;;;2506498;23;20055;-74
2023/08/17 04:50:51;;;;;;;5.13;3.38;;;19.00;99.90;;;;;;2507711;23;20085;-74
2023/08/17 04:51:52;;;;;;;5.78;3.83;;;19.00;99.90;;;;;;2518264;23;20089;-74
2023/08/17 04:52:53;;;;;;;6.40;4.78;;;19.10;99.90;;;;;;2518538;23;20005;-74
2023/08/17 04:53:53;;;;;;;9.70;4.55;;;19.00;99.90;;;;;;2507168;23;20015;-74
2023/08/17 04:54:54;;;;;;;8.35;4.60;;;19.00;99.90;;;;;;2506788;23;20014;-74
2023/08/17 04:55:54;;;;;;;6.53;4.65;;;19.10;99.90;;;;;;2507237;23;20086;-74
2023/08/17 04:56:55;;;;;;;6.43;4.47;;;19.10;99.90;;;;;;2505711;23;20011;-74
2023/08/17 04:57:55;;;;;;;6.85;5.30;;;19.10;99.90;;;;;;2506572;23;20003;-73
2023/08/17 04:58:56;;;;;;;7.18;4.93;;;19.10;99.90;;;;;;2518218;23;20439;-74
2023/08/17 04:59:57;;;;;;;5.90;4.53;;;19.10;99.90;;;;;;2516871;23;20594;-73
2023/08/17 05:00:59;;;;;;;5.55;4.00;;;19.00;99.90;;;;;;2506515;23;20050;-73
2023/08/17 05:01:59;;;;;;;5.15;4.55;;;19.00;99.90;;;;;;2506669;23;20003;-73
2023/08/17 05:03:00;;;;;;;6.28;4.60;;;19.10;99.90;;;;;;2506990;23;20038;-73
2023/08/17 05:04:00;;;;;;;7.80;4.88;;;19.10;99.90;;;;;;2507578;23;20086;-74
2023/08/17 05:05:06;;;;;;;8.27;5.70;;;19.00;99.90;;;;;;2506732;23;20006;-74
2023/08/17 05:06:07;;;;;;;6.05;4.53;;;19.00;99.90;;;;;;2506985;23;20037;-74
2023/08/17 05:07:07;;;;;;;6.13;4.50;;;19.10;99.90;;;;;;2507096;23;20003;-74
2023/08/17 05:08:08;;;;;;;8.32;4.32;;;19.00;99.90;;;;;;2517675;23;20007;-74
2023/08/17 05:09:09;;;;;;;5.45;4.32;;;19.10;99.90;;;;;;2518828;23;20026;-74
2023/08/17 05:10:10;;;;;;;8.05;4.93;;;19.10;99.90;;;;;;2506713;23;20038;-74
2023/08/17 05:11:10;;;;;;;8.45;4.57;;;19.10;99.90;;;;;;2506645;23;20006;-73
2023/08/17 05:12:11;;;;;;;6.88;5.15;;;19.10;99.90;;;;;;2507532;23;20011;-74
2023/08/17 05:13:11;;;;;;;7.65;4.80;;;19.10;99.90;;;;;;2507013;23;20082;-74
2023/08/17 05:14:12;;;;;;;6.47;5.10;;;19.10;99.90;;;;;;2506133;23;19999;-73
2023/08/17 05:15:13;;;;;;;8.88;4.82;;;19.10;99.90;;;;;;2507083;23;20395;-73
2023/08/17 05:16:13;;;;;;;10.55;4.70;;;19.10;99.90;;;;;;2506128;23;20047;-74
2023/08/17 05:17:14;;;;;;;6.40;4.70;;;19.10;99.90;;;;;;2506848;23;20061;-74
2023/08/17 05:18:14;;;;;;;7.40;4.95;;;19.10;99.90;;;;;;2506992;23;20019;-74
2023/08/17 05:19:15;;;;;;;6.57;4.90;;;19.10;99.90;;;;;;2507559;23;20019;-74
2023/08/17 05:20:15;;;;;;;8.23;5.00;;;19.20;99.90;;;;;;2507069;23;20087;-74